createdAt,value
2017-08-22T00:00:26.669Z,16.50
2017-08-22T00:02:54.920Z,16.50
2017-08-22T00:05:23.150Z,16.50
2017-08-22T00:07:52.497Z,16.40
2017-08-22T00:10:20.742Z,16.40
2017-08-22T00:12:48.982Z,16.30
2017-08-22T00:15:17.382Z,16.30
2017-08-22T00:17:45.618Z,16.30
2017-08-22T00:20:14.050Z,16.30
2017-08-22T00:22:42.566Z,16.20
2017-08-22T00:25:10.815Z,16.20
2017-08-22T00:27:39.206Z,16.10
2017-08-22T00:30:07.466Z,16.10
2017-08-22T00:32:35.879Z,16.10
2017-08-22T00:35:04.234Z,16.10
2017-08-22T00:37:32.481Z,16.10
2017-08-22T00:40:00.725Z,16.10
2017-08-22T00:42:28.966Z,16.00
2017-08-22T00:44:57.925Z,16.00
2017-08-22T00:47:26.178Z,16.00
2017-08-22T00:49:54.427Z,15.90
2017-08-22T00:52:22.694Z,15.80
2017-08-22T00:54:50.930Z,15.70
2017-08-22T00:57:19.170Z,15.70
2017-08-22T00:59:47.442Z,15.60
2017-08-22T01:02:15.686Z,15.50
2017-08-22T01:04:43.925Z,15.60
2017-08-22T01:07:12.705Z,15.60
2017-08-22T01:09:40.950Z,15.60
2017-08-22T01:12:09.186Z,15.50
2017-08-22T01:14:37.455Z,15.40
2017-08-22T01:17:05.695Z,15.30
2017-08-22T01:19:33.921Z,15.30
2017-08-22T01:22:02.339Z,15.30
2017-08-22T01:24:30.581Z,15.20
2017-08-22T01:26:58.822Z,15.20
2017-08-22T01:29:27.386Z,15.10
2017-08-22T01:31:55.622Z,15.10
2017-08-22T01:34:24.229Z,15.10
2017-08-22T01:36:52.500Z,15.00
2017-08-22T01:39:20.734Z,15.00
2017-08-22T01:41:48.970Z,15.00
2017-08-22T01:44:17.746Z,15.00
2017-08-22T01:46:45.983Z,14.90
2017-08-22T01:49:14.232Z,14.90
2017-08-22T01:51:43.238Z,14.90
2017-08-22T01:54:11.481Z,14.90
2017-08-22T01:56:39.718Z,14.80
2017-08-22T01:59:07.985Z,14.80
2017-08-22T02:01:36.221Z,14.90
2017-08-22T02:04:04.467Z,14.90
2017-08-22T02:06:34.694Z,14.80
2017-08-22T02:09:02.938Z,14.80
2017-08-22T02:11:31.178Z,14.80
2017-08-22T02:13:59.883Z,14.70
2017-08-22T02:16:28.142Z,14.60
2017-08-22T02:18:56.386Z,14.60
2017-08-22T02:21:24.662Z,14.60
2017-08-22T02:23:52.903Z,14.50
2017-08-22T02:26:21.146Z,14.50
2017-08-22T02:28:49.518Z,14.50
2017-08-22T02:31:17.754Z,14.50
2017-08-22T02:33:45.989Z,14.50
2017-08-22T02:36:14.902Z,14.40
2017-08-22T02:38:43.282Z,14.40
2017-08-22T02:41:11.528Z,14.40
2017-08-22T02:43:39.782Z,14.40
2017-08-22T02:46:08.026Z,14.40
2017-08-22T02:48:36.271Z,14.30
2017-08-22T02:51:04.537Z,14.30
2017-08-22T02:53:32.777Z,14.30
2017-08-22T02:56:01.012Z,14.30
2017-08-22T02:58:29.329Z,14.30
2017-08-22T03:00:57.575Z,14.30
2017-08-22T03:03:25.814Z,14.30
2017-08-22T03:05:54.734Z,14.30
2017-08-22T03:08:22.982Z,14.20
2017-08-22T03:10:51.246Z,14.20
2017-08-22T03:13:19.693Z,14.20
2017-08-22T03:15:47.930Z,14.20
2017-08-22T03:18:16.170Z,14.20
2017-08-22T03:20:44.727Z,14.20
2017-08-22T03:23:13.198Z,14.30
2017-08-22T03:25:41.434Z,14.30
2017-08-22T03:28:09.693Z,14.20
2017-08-22T03:30:37.943Z,14.20
2017-08-22T03:33:06.186Z,14.10
2017-08-22T03:35:34.490Z,14.00
2017-08-22T03:38:03.095Z,14.00
2017-08-22T03:40:31.334Z,13.90
2017-08-22T03:42:59.991Z,13.90
2017-08-22T03:45:28.233Z,13.90
2017-08-22T03:47:56.473Z,13.90
2017-08-22T03:50:24.742Z,13.90
2017-08-22T03:52:52.980Z,13.90
2017-08-22T03:55:21.230Z,13.90
2017-08-22T03:57:49.521Z,13.90
2017-08-22T04:00:17.958Z,13.80
2017-08-22T04:02:46.206Z,13.70
2017-08-22T04:05:14.978Z,13.70
2017-08-22T04:07:43.221Z,13.60
2017-08-22T04:10:11.463Z,13.60
2017-08-22T04:12:39.732Z,13.60
2017-08-22T04:15:07.984Z,13.50
2017-08-22T04:17:36.226Z,13.50
2017-08-22T04:20:04.490Z,13.50
2017-08-22T04:22:32.730Z,13.40
2017-08-22T04:25:00.973Z,13.30
2017-08-22T04:27:30.015Z,13.30
2017-08-22T04:29:58.242Z,13.30
2017-08-22T04:32:26.485Z,13.30
2017-08-22T04:34:54.758Z,13.30
2017-08-22T04:37:22.998Z,13.30
2017-08-22T04:39:51.502Z,13.30
2017-08-22T04:42:19.773Z,13.20
2017-08-22T04:44:48.010Z,13.20
2017-08-22T04:47:16.253Z,13.20
2017-08-22T04:49:44.918Z,13.20
2017-08-22T04:52:13.162Z,13.20
2017-08-22T04:54:41.406Z,13.20
2017-08-22T04:57:09.674Z,13.20
2017-08-22T04:59:37.922Z,13.20
2017-08-22T05:02:06.171Z,13.20
2017-08-22T05:04:34.446Z,13.20
2017-08-22T05:07:02.853Z,13.30
2017-08-22T05:09:31.078Z,13.30
2017-08-22T05:11:59.569Z,13.30
2017-08-22T05:14:27.810Z,13.30
2017-08-22T05:16:56.060Z,13.30
2017-08-22T05:19:24.325Z,13.30
2017-08-22T05:21:52.575Z,13.30
2017-08-22T05:24:20.826Z,13.40
2017-08-22T05:26:49.094Z,13.40
2017-08-22T05:29:17.342Z,13.50
2017-08-22T05:31:45.586Z,13.40
2017-08-22T05:34:14.285Z,13.40
2017-08-22T05:36:42.530Z,13.30
2017-08-22T05:39:10.778Z,13.40
2017-08-22T05:41:39.407Z,13.50
2017-08-22T05:44:07.856Z,13.60
2017-08-22T05:46:36.110Z,13.50
2017-08-22T05:49:04.378Z,13.50
2017-08-22T05:51:32.622Z,13.60
2017-08-22T05:54:00.866Z,13.60
2017-08-22T05:56:29.699Z,13.60
2017-08-22T05:58:57.944Z,13.70
2017-08-22T06:01:26.371Z,13.80
2017-08-22T06:03:55.142Z,13.80
2017-08-22T06:06:23.393Z,13.80
2017-08-22T06:08:51.646Z,13.80
2017-08-22T06:11:19.930Z,13.80
2017-08-22T06:13:48.186Z,13.70
2017-08-22T06:16:16.430Z,13.60
2017-08-22T06:18:44.862Z,13.60
2017-08-22T06:21:13.109Z,13.60
2017-08-22T06:23:41.358Z,13.70
2017-08-22T06:26:09.691Z,13.80
2017-08-22T06:28:38.858Z,13.80
2017-08-22T06:31:07.110Z,13.90
2017-08-22T06:33:35.386Z,14.00
2017-08-22T06:36:03.638Z,14.00
2017-08-22T06:38:31.890Z,14.20
2017-08-22T06:41:00.528Z,14.20
2017-08-22T06:43:29.174Z,14.20
2017-08-22T06:45:57.435Z,14.20
2017-08-22T06:48:25.698Z,14.20
2017-08-22T06:50:54.159Z,14.30
2017-08-22T06:53:23.574Z,14.30
2017-08-22T06:55:51.855Z,14.50
2017-08-22T06:58:20.094Z,14.50
2017-08-22T07:00:48.337Z,14.50
2017-08-22T07:03:16.854Z,14.60
2017-08-22T07:05:45.159Z,14.60
2017-08-22T07:08:13.410Z,14.70
2017-08-22T07:10:41.690Z,14.90
2017-08-22T07:13:12.134Z,14.90
2017-08-22T07:15:40.404Z,15.00
2017-08-22T07:18:08.675Z,15.10
2017-08-22T07:20:36.926Z,15.20
2017-08-22T07:23:05.178Z,15.20
2017-08-22T07:25:35.034Z,15.20
2017-08-22T07:28:03.286Z,15.30
2017-08-22T07:30:31.542Z,15.30
2017-08-22T07:32:59.814Z,15.40
2017-08-22T07:35:28.335Z,15.50
2017-08-22T07:37:56.595Z,15.60
2017-08-22T07:40:27.340Z,15.60
2017-08-22T07:42:55.633Z,15.60
2017-08-22T07:45:24.482Z,15.70
2017-08-22T07:47:52.905Z,15.70
2017-08-22T07:50:21.146Z,15.80
2017-08-22T07:52:49.389Z,16.00
2017-08-22T07:55:17.658Z,16.10
2017-08-22T07:57:45.902Z,16.20
2017-08-22T08:00:14.146Z,16.40
2017-08-22T08:02:42.509Z,16.60
2017-08-22T08:05:10.758Z,16.80
2017-08-22T08:07:38.998Z,17.10
2017-08-22T08:10:07.626Z,17.30
2017-08-22T08:12:35.869Z,17.50
2017-08-22T08:15:04.374Z,17.80
2017-08-22T08:17:33.882Z,18.00
2017-08-22T08:20:02.156Z,18.20
2017-08-22T08:22:30.398Z,18.40
2017-08-22T08:24:58.678Z,18.50
2017-08-22T08:27:26.966Z,18.70
2017-08-22T08:29:55.190Z,18.80
2017-08-22T08:32:23.882Z,18.90
2017-08-22T08:34:52.122Z,19.00
2017-08-22T08:37:20.421Z,19.10
2017-08-22T08:39:48.686Z,19.20
2017-08-22T08:42:16.934Z,19.30
2017-08-22T08:44:45.194Z,19.40
2017-08-22T08:47:13.985Z,19.50
2017-08-22T08:49:42.234Z,19.60
2017-08-22T08:52:10.478Z,19.50
2017-08-22T08:54:39.098Z,19.60
2017-08-22T08:57:07.342Z,19.70
2017-08-22T08:59:35.591Z,19.80
2017-08-22T09:02:04.707Z,19.80
2017-08-22T09:04:32.947Z,19.90
2017-08-22T09:07:01.270Z,20.00
2017-08-22T09:09:29.821Z,20.00
2017-08-22T09:11:58.063Z,20.00
2017-08-22T09:14:26.305Z,20.00
2017-08-22T09:16:55.185Z,20.00
2017-08-22T09:19:23.426Z,20.10
2017-08-22T09:21:51.675Z,20.20
2017-08-22T09:24:19.958Z,20.30
2017-08-22T09:26:48.198Z,20.30
2017-08-22T09:29:16.443Z,20.30
2017-08-22T09:31:44.741Z,20.20
2017-08-22T09:34:12.962Z,20.20
2017-08-22T09:36:41.201Z,20.20
2017-08-22T09:39:09.650Z,20.10
2017-08-22T09:41:39.622Z,20.10
2017-08-22T09:44:07.935Z,20.00
2017-08-22T09:46:36.207Z,20.10
2017-08-22T09:49:04.962Z,20.10
2017-08-22T09:51:33.205Z,20.10
2017-08-22T09:54:01.458Z,20.10
2017-08-22T09:56:29.702Z,20.10
2017-08-22T09:58:57.945Z,20.10
2017-08-22T10:01:26.298Z,20.20
2017-08-22T10:03:54.602Z,20.30
2017-08-22T10:06:22.842Z,20.40
2017-08-22T10:08:51.109Z,20.50
2017-08-22T10:11:19.362Z,20.60
2017-08-22T10:13:47.726Z,20.70
2017-08-22T10:16:16.077Z,20.70
2017-08-22T10:18:44.298Z,20.80
2017-08-22T10:21:12.551Z,20.90
2017-08-22T10:23:41.023Z,21.00
2017-08-22T10:26:09.270Z,21.00
2017-08-22T10:28:38.686Z,21.00
2017-08-22T10:31:06.954Z,21.20
2017-08-22T10:33:35.203Z,21.40
2017-08-22T10:36:03.458Z,21.50
2017-08-22T10:38:31.754Z,21.60
2017-08-22T10:41:00.003Z,21.80
2017-08-22T10:43:28.246Z,22.00
2017-08-22T10:45:57.426Z,22.20
2017-08-22T10:48:25.671Z,22.50
2017-08-22T10:50:55.470Z,22.90
2017-08-22T10:53:23.925Z,23.80
2017-08-22T10:55:52.154Z,25.00
2017-08-22T10:58:21.391Z,26.20
2017-08-22T11:00:49.666Z,27.10
2017-08-22T11:03:17.899Z,27.90
2017-08-22T11:05:46.139Z,27.90
2017-08-22T11:08:15.108Z,28.00
2017-08-22T11:10:43.321Z,28.40
2017-08-22T11:13:11.570Z,29.10
2017-08-22T11:15:39.849Z,29.30
2017-08-22T11:18:08.111Z,29.50
2017-08-22T11:20:36.484Z,29.80
2017-08-22T11:23:04.760Z,30.10
2017-08-22T11:25:33.001Z,30.30
2017-08-22T11:28:01.370Z,30.00
2017-08-22T11:30:29.782Z,29.60
2017-08-22T11:32:58.519Z,30.00
2017-08-22T11:35:26.767Z,30.90
2017-08-22T11:37:55.174Z,31.80
2017-08-22T11:40:23.405Z,31.70
2017-08-22T11:42:51.638Z,31.10
2017-08-22T11:45:19.906Z,30.80
2017-08-22T11:47:48.150Z,31.60
2017-08-22T11:50:16.390Z,32.20
2017-08-22T11:52:46.131Z,32.70
2017-08-22T11:55:14.382Z,32.90
2017-08-22T11:57:42.626Z,33.00
2017-08-22T12:00:10.914Z,33.40
2017-08-22T12:02:40.154Z,33.10
2017-08-22T12:05:08.382Z,32.60
2017-08-22T12:07:36.690Z,32.60
2017-08-22T12:10:04.935Z,33.00
2017-08-22T12:12:33.178Z,33.40
2017-08-22T12:15:01.834Z,33.90
2017-08-22T12:17:30.184Z,34.20
2017-08-22T12:19:59.286Z,33.80
2017-08-22T12:22:27.988Z,34.10
2017-08-22T12:24:56.273Z,34.70
2017-08-22T12:27:24.581Z,35.20
2017-08-22T12:29:52.930Z,35.50
2017-08-22T12:32:21.155Z,35.90
2017-08-22T12:34:52.474Z,35.90
2017-08-22T12:37:21.082Z,35.60
2017-08-22T12:39:49.378Z,34.90
2017-08-22T12:42:17.622Z,34.50
2017-08-22T12:44:45.893Z,34.60
2017-08-22T12:47:14.122Z,34.90
2017-08-22T12:49:42.438Z,35.30
2017-08-22T12:52:10.703Z,35.50
2017-08-22T12:54:39.230Z,35.30
2017-08-22T12:57:08.257Z,33.20
2017-08-22T12:59:36.962Z,33.20
2017-08-22T13:02:05.202Z,32.70
2017-08-22T13:04:33.442Z,32.70
2017-08-22T13:07:01.862Z,33.40
2017-08-22T13:09:30.085Z,34.60
2017-08-22T13:11:58.318Z,35.50
2017-08-22T13:14:26.578Z,35.30
2017-08-22T13:16:54.860Z,35.00
2017-08-22T13:19:23.298Z,34.50
2017-08-22T13:21:52.058Z,34.10
2017-08-22T13:24:20.298Z,34.20
2017-08-22T13:26:48.542Z,34.90
2017-08-22T13:29:16.810Z,35.70
2017-08-22T13:31:45.073Z,36.10
2017-08-22T13:34:13.298Z,36.30
2017-08-22T13:36:41.570Z,36.90
2017-08-22T13:39:09.818Z,36.80
2017-08-22T13:41:38.053Z,36.10
2017-08-22T13:44:06.386Z,35.10
2017-08-22T13:46:34.630Z,34.40
2017-08-22T13:49:02.861Z,34.80
2017-08-22T13:51:31.125Z,35.80
2017-08-22T13:53:59.361Z,36.70
2017-08-22T13:56:27.786Z,37.10
2017-08-22T13:58:56.042Z,37.20
2017-08-22T14:01:24.287Z,37.30
2017-08-22T14:03:52.787Z,37.50
2017-08-22T14:06:21.346Z,37.30
2017-08-22T14:08:49.594Z,37.30
2017-08-22T14:11:17.829Z,37.50
2017-08-22T14:13:46.097Z,37.20
2017-08-22T14:16:14.335Z,37.00
2017-08-22T14:18:42.573Z,37.30
2017-08-22T14:21:10.838Z,38.20
2017-08-22T14:23:39.079Z,39.10
2017-08-22T14:26:07.584Z,39.60
2017-08-22T14:28:36.453Z,39.80
2017-08-22T14:31:04.694Z,39.90
2017-08-22T14:33:32.926Z,40.20
2017-08-22T14:36:01.202Z,40.60
2017-08-22T14:38:29.438Z,40.70
2017-08-22T14:40:57.666Z,40.80
2017-08-22T14:43:25.950Z,41.10
2017-08-22T14:45:54.194Z,41.10
2017-08-22T14:48:22.438Z,41.20
2017-08-22T14:50:50.750Z,41.30
2017-08-22T14:53:18.991Z,41.30
2017-08-22T14:55:47.227Z,41.10
2017-08-22T14:58:16.043Z,40.60
2017-08-22T15:00:44.311Z,40.60
2017-08-22T15:03:12.538Z,40.90
2017-08-22T15:05:40.830Z,41.10
2017-08-22T15:08:09.050Z,41.00
2017-08-22T15:10:37.290Z,41.00
2017-08-22T15:13:06.054Z,41.20
2017-08-22T15:15:34.294Z,41.30
2017-08-22T15:18:02.535Z,41.50
2017-08-22T15:20:30.848Z,41.50
2017-08-22T15:22:59.554Z,41.70
2017-08-22T15:25:27.778Z,41.70
2017-08-22T15:27:56.050Z,41.60
2017-08-22T15:30:24.295Z,41.50
2017-08-22T15:32:52.535Z,41.20
2017-08-22T15:35:21.158Z,40.10
2017-08-22T15:37:49.398Z,38.90
2017-08-22T15:40:17.870Z,37.60
2017-08-22T15:42:46.601Z,37.10
2017-08-22T15:45:14.838Z,37.10
2017-08-22T15:47:43.069Z,36.60
2017-08-22T15:50:11.334Z,36.00
2017-08-22T15:52:39.624Z,36.30
2017-08-22T15:55:07.853Z,37.20
2017-08-22T15:57:36.258Z,37.40
2017-08-22T16:00:04.965Z,36.70
2017-08-22T16:02:34.167Z,35.90
2017-08-22T16:05:02.434Z,35.50
2017-08-22T16:07:30.716Z,35.00
2017-08-22T16:09:58.933Z,34.30
2017-08-22T16:12:27.417Z,33.90
2017-08-22T16:14:55.639Z,34.20
2017-08-22T16:17:23.877Z,35.10
2017-08-22T16:19:52.589Z,36.10
2017-08-22T16:22:20.842Z,37.00
2017-08-22T16:24:49.086Z,37.60
2017-08-22T16:27:17.350Z,38.00
2017-08-22T16:29:46.655Z,38.30
2017-08-22T16:32:15.029Z,38.50
2017-08-22T16:34:43.422Z,38.70
2017-08-22T16:37:11.777Z,38.70
2017-08-22T16:39:41.082Z,38.50
2017-08-22T16:42:09.621Z,38.20
2017-08-22T16:44:37.864Z,37.90
2017-08-22T16:47:06.233Z,37.80
2017-08-22T16:50:15.225Z,37.30
2017-08-22T16:52:43.462Z,36.90
2017-08-22T16:55:11.705Z,36.80
2017-08-22T16:57:42.229Z,36.90
2017-08-22T17:00:10.921Z,37.00
2017-08-22T17:02:39.175Z,37.00
2017-08-22T17:05:07.439Z,36.90
2017-08-22T17:07:35.686Z,36.60
2017-08-22T17:10:04.708Z,36.00
2017-08-22T17:12:32.984Z,35.90
2017-08-22T17:15:01.394Z,35.90
2017-08-22T17:17:29.633Z,35.90
2017-08-22T17:19:58.389Z,35.80
2017-08-22T17:22:27.770Z,35.60
2017-08-22T17:24:56.023Z,35.40
2017-08-22T17:27:24.290Z,34.70
2017-08-22T17:29:52.650Z,33.70
2017-08-22T17:32:20.902Z,32.80
2017-08-22T17:34:49.392Z,32.00
2017-08-22T17:37:18.278Z,31.40
2017-08-22T17:39:46.519Z,30.90
2017-08-22T17:42:15.800Z,30.40
2017-08-22T17:44:44.097Z,30.00
2017-08-22T17:47:12.338Z,29.60
2017-08-22T17:49:40.633Z,29.40
2017-08-22T17:52:08.858Z,29.10
2017-08-22T17:54:37.097Z,28.90
2017-08-22T17:57:05.358Z,28.70
2017-08-22T17:59:34.602Z,28.50
2017-08-22T18:02:03.363Z,28.30
2017-08-22T18:04:31.829Z,28.10
2017-08-22T18:07:00.074Z,28.00
2017-08-22T18:09:28.314Z,27.80
2017-08-22T18:11:56.595Z,27.70
2017-08-22T18:14:24.958Z,27.50
2017-08-22T18:16:53.415Z,27.40
2017-08-22T18:19:21.731Z,27.20
2017-08-22T18:21:49.982Z,27.10
2017-08-22T18:24:18.228Z,26.90
2017-08-22T18:26:46.928Z,26.70
2017-08-22T18:29:15.163Z,26.60
2017-08-22T18:31:43.754Z,26.40
2017-08-22T18:34:12.027Z,26.30
2017-08-22T18:36:41.030Z,26.00
2017-08-22T18:39:09.270Z,26.00
2017-08-22T18:41:37.790Z,25.90
2017-08-22T18:44:06.062Z,25.80
2017-08-22T18:46:34.498Z,25.70
2017-08-22T18:49:03.259Z,25.60
2017-08-22T18:51:31.565Z,25.60
2017-08-22T18:53:59.939Z,25.50
2017-08-22T18:56:28.197Z,25.40
2017-08-22T18:58:56.451Z,25.30
2017-08-22T19:01:24.694Z,25.20
2017-08-22T19:03:52.962Z,25.10
2017-08-22T19:06:21.570Z,25.00
2017-08-22T19:08:49.814Z,24.90
2017-08-22T19:11:18.126Z,24.90
2017-08-22T19:13:46.386Z,24.80
2017-08-22T19:16:14.629Z,24.70
2017-08-22T19:18:42.894Z,24.60
2017-08-22T19:21:11.137Z,24.50
2017-08-22T19:23:39.379Z,24.40
2017-08-22T19:26:07.839Z,24.30
2017-08-22T19:28:36.067Z,24.20
2017-08-22T19:31:04.307Z,24.10
2017-08-22T19:33:32.858Z,23.90
2017-08-22T19:36:01.098Z,23.90
2017-08-22T19:38:29.340Z,23.70
2017-08-22T19:40:57.611Z,23.70
2017-08-22T19:43:25.862Z,23.60
2017-08-22T19:45:54.106Z,23.50
2017-08-22T19:48:22.370Z,23.50
2017-08-22T19:50:50.606Z,23.40
2017-08-22T19:53:18.845Z,23.30
2017-08-22T19:55:47.346Z,23.30
2017-08-22T19:58:15.642Z,23.20
2017-08-22T20:00:43.882Z,23.20
2017-08-22T20:03:12.145Z,23.10
2017-08-22T20:05:40.518Z,23.00
2017-08-22T20:08:09.522Z,22.90
2017-08-22T20:10:37.782Z,22.80
2017-08-22T20:13:06.023Z,22.80
2017-08-22T20:15:34.267Z,22.70
2017-08-22T20:18:02.763Z,22.60
2017-08-22T20:20:31.094Z,22.50
2017-08-22T20:23:00.114Z,22.50
2017-08-22T20:25:28.381Z,22.50
2017-08-22T20:27:56.624Z,22.40
2017-08-22T20:30:24.858Z,22.40
2017-08-22T20:32:53.121Z,22.30
2017-08-22T20:35:21.362Z,22.10
2017-08-22T20:37:49.604Z,22.10
2017-08-22T20:40:18.174Z,22.00
2017-08-22T20:42:46.487Z,22.00
2017-08-22T20:45:14.728Z,21.90
2017-08-22T20:47:42.990Z,21.90
2017-08-22T20:50:11.229Z,21.80
2017-08-22T20:52:39.477Z,21.70
2017-08-22T20:55:07.782Z,21.70
2017-08-22T20:57:36.798Z,21.60
2017-08-22T21:00:05.041Z,21.50
2017-08-22T21:02:34.201Z,21.40
2017-08-22T21:05:02.434Z,21.30
2017-08-22T21:07:31.210Z,21.20
2017-08-22T21:09:59.480Z,21.30
2017-08-22T21:12:27.718Z,21.20
2017-08-22T21:14:55.962Z,21.10
2017-08-22T21:17:24.227Z,21.10
2017-08-22T21:19:52.474Z,21.00
2017-08-22T21:22:20.734Z,20.90
2017-08-22T21:24:49.597Z,20.90
2017-08-22T21:27:17.842Z,20.80
2017-08-22T21:29:46.089Z,20.70
2017-08-22T21:32:14.354Z,20.70
2017-08-22T21:34:42.593Z,20.70
2017-08-22T21:37:10.838Z,20.60
2017-08-22T21:39:39.111Z,20.60
2017-08-22T21:42:07.361Z,20.50
2017-08-22T21:44:35.597Z,20.40
2017-08-22T21:47:04.090Z,20.30
2017-08-22T21:49:32.335Z,20.30
2017-08-22T21:52:00.574Z,20.20
2017-08-22T21:54:28.843Z,20.10
2017-08-22T21:56:57.069Z,20.10
2017-08-22T21:59:25.310Z,20.10
2017-08-22T22:01:53.574Z,20.00
2017-08-22T22:04:21.830Z,20.00
2017-08-22T22:06:50.059Z,19.90
2017-08-22T22:09:19.506Z,19.80
2017-08-22T22:11:48.731Z,19.70
2017-08-22T22:14:16.970Z,19.50
2017-08-22T22:16:45.234Z,19.50
2017-08-22T22:19:13.478Z,19.50
2017-08-22T22:21:41.729Z,19.50
2017-08-22T22:24:10.958Z,19.50
2017-08-22T22:26:39.206Z,19.40
2017-08-22T22:29:07.450Z,19.30
2017-08-22T22:31:35.862Z,19.30
2017-08-22T22:34:04.146Z,19.20
2017-08-22T22:36:32.394Z,19.20
2017-08-22T22:39:00.658Z,19.10
2017-08-22T22:41:28.907Z,19.10
2017-08-22T22:43:57.154Z,19.10
2017-08-22T22:46:25.427Z,19.00
2017-08-22T22:48:53.793Z,19.00
2017-08-22T22:51:22.033Z,18.90
2017-08-22T22:53:50.362Z,18.80
2017-08-22T22:56:18.601Z,18.80
2017-08-22T22:58:46.848Z,18.80
2017-08-22T23:01:15.113Z,18.70
2017-08-22T23:03:44.118Z,18.70
2017-08-22T23:06:13.130Z,18.60
2017-08-22T23:08:41.390Z,18.60
2017-08-22T23:11:10.162Z,18.60
2017-08-22T23:13:38.406Z,18.50
2017-08-22T23:16:06.970Z,18.40
2017-08-22T23:18:35.209Z,18.40
2017-08-22T23:21:03.450Z,18.40
2017-08-22T23:23:31.749Z,18.40
2017-08-22T23:25:59.993Z,18.30
2017-08-22T23:28:28.234Z,18.30
2017-08-22T23:30:56.507Z,18.20
2017-08-22T23:33:24.755Z,18.10
2017-08-22T23:35:52.998Z,18.00
2017-08-22T23:38:22.074Z,17.90
2017-08-22T23:40:50.310Z,17.90
2017-08-22T23:43:18.558Z,17.90
2017-08-22T23:45:46.817Z,17.90
2017-08-22T23:48:15.062Z,17.90
2017-08-22T23:50:43.311Z,17.80
2017-08-22T23:53:12.354Z,17.70
2017-08-22T23:55:40.650Z,17.70
2017-08-22T23:58:08.885Z,17.60
